createdAt,value
2022-08-19T00:02:09.229Z,9.23
2022-08-19T00:07:10.924Z,10.10
2022-08-19T00:12:13.438Z,9.03
2022-08-19T00:17:15.345Z,11.70
2022-08-19T00:22:18.968Z,8.60
2022-08-19T00:27:25.873Z,9.90
2022-08-19T00:32:28.695Z,10.33
2022-08-19T00:37:31.554Z,8.80
2022-08-19T00:42:34.084Z,11.83
2022-08-19T00:47:35.763Z,11.53
2022-08-19T00:52:47.236Z,9.53
2022-08-19T00:58:07.859Z,9.27
2022-08-19T01:03:20.313Z,8.40
2022-08-19T01:08:23.100Z,9.23
2022-08-19T01:13:49.097Z,9.80
2022-08-19T01:18:51.954Z,10.50
2022-08-19T01:23:53.873Z,10.80
2022-08-19T01:29:00.741Z,12.17
2022-08-19T01:34:04.364Z,9.83
2022-08-19T01:39:12.274Z,9.73
2022-08-19T01:44:18.672Z,15.53
2022-08-19T01:49:26.022Z,10.90
2022-08-19T01:54:28.589Z,16.93
2022-08-19T01:59:31.770Z,11.30
2022-08-19T02:04:34.950Z,10.90
2022-08-19T02:09:37.261Z,13.10
2022-08-19T02:14:39.062Z,14.70
2022-08-19T02:19:41.343Z,13.53
2022-08-19T02:24:43.166Z,11.70
2022-08-19T02:29:48.714Z,8.43
2022-08-19T02:34:50.484Z,9.93
2022-08-19T02:39:52.233Z,11.57
2022-08-19T02:44:57.195Z,9.60
2022-08-19T02:49:59.110Z,10.67
2022-08-19T02:55:01.929Z,11.53
2022-08-19T03:00:08.161Z,10.47
2022-08-19T03:05:11.559Z,13.53
2022-08-19T03:10:14.406Z,11.73
2022-08-19T03:15:16.419Z,12.63
2022-08-19T03:20:18.241Z,15.43
2022-08-19T03:25:19.950Z,12.33
2022-08-19T03:30:23.214Z,14.90
2022-08-19T03:35:25.653Z,13.40
2022-08-19T03:40:27.528Z,14.87
2022-08-19T03:45:30.182Z,16.30
2022-08-19T03:50:37.650Z,16.77
2022-08-19T03:55:42.970Z,13.67
2022-08-19T04:00:44.738Z,15.47
2022-08-19T04:05:47.990Z,15.73
2022-08-19T04:10:50.529Z,13.63
2022-08-19T04:15:52.256Z,16.73
2022-08-19T04:20:53.991Z,16.33
2022-08-19T04:25:56.762Z,14.70
2022-08-19T04:30:59.567Z,12.63
2022-08-19T04:36:01.297Z,14.63
2022-08-19T04:41:24.916Z,12.73
2022-08-19T04:46:39.597Z,11.77
2022-08-19T04:51:46.851Z,13.87
2022-08-19T04:56:50.603Z,13.20
2022-08-19T05:01:52.366Z,11.03
2022-08-19T05:06:54.248Z,13.97
2022-08-19T05:12:04.088Z,11.23
2022-08-19T05:17:26.026Z,12.83
2022-08-19T05:22:33.442Z,12.87
2022-08-19T05:27:35.845Z,13.30
2022-08-19T05:32:38.565Z,14.43
2022-08-19T05:37:41.633Z,13.60
2022-08-19T05:42:43.493Z,13.50
2022-08-19T05:47:46.018Z,13.30
2022-08-19T05:52:54.464Z,12.30
2022-08-19T05:57:56.265Z,11.60
2022-08-19T06:03:00.555Z,12.37
2022-08-19T06:08:11.330Z,12.70
2022-08-19T06:13:13.173Z,11.77
2022-08-19T06:18:17.570Z,11.37
2022-08-19T06:23:21.197Z,10.90
2022-08-19T06:28:26.034Z,17.40
2022-08-19T06:33:27.755Z,12.47
2022-08-19T06:38:29.874Z,16.37
2022-08-19T06:43:31.708Z,13.30
2022-08-19T06:48:45.301Z,17.00
2022-08-19T06:53:54.998Z,19.03
2022-08-19T06:58:59.295Z,14.27
2022-08-19T07:04:02.490Z,16.87
2022-08-19T07:09:14.748Z,16.37
2022-08-19T07:14:28.497Z,15.13
2022-08-19T07:19:30.746Z,17.67
2022-08-19T07:24:34.231Z,23.73
2022-08-19T07:29:37.660Z,18.57
2022-08-19T07:34:40.094Z,16.20
2022-08-19T07:39:41.945Z,16.80
2022-08-19T07:44:50.395Z,15.50
2022-08-19T07:49:53.334Z,17.10
2022-08-19T07:54:55.032Z,16.43
2022-08-19T07:59:57.156Z,14.97
2022-08-19T08:05:17.232Z,15.60
2022-08-19T08:10:21.273Z,20.40
2022-08-19T08:15:25.126Z,19.97
2022-08-19T08:20:27.034Z,18.23
2022-08-19T08:25:29.323Z,17.17
2022-08-19T08:30:36.771Z,14.97
2022-08-19T08:35:42.700Z,19.33
2022-08-19T08:40:51.859Z,14.97
2022-08-19T08:46:31.482Z,17.47
2022-08-19T08:51:56.208Z,16.50
2022-08-19T08:57:07.353Z,22.00
2022-08-19T09:02:12.615Z,16.20
2022-08-19T09:08:00.554Z,19.27
2022-08-19T09:13:43.322Z,16.27
2022-08-19T09:18:54.090Z,16.10
2022-08-19T09:23:56.497Z,20.10
2022-08-19T09:29:00.599Z,13.63
2022-08-19T09:34:04.682Z,17.10
2022-08-19T09:39:16.114Z,18.03
2022-08-19T09:44:21.279Z,16.13
2022-08-19T09:49:24.382Z,17.10
2022-08-19T09:54:27.638Z,16.13
2022-08-19T09:59:30.510Z,15.03
2022-08-19T10:04:53.447Z,13.90
2022-08-19T10:09:55.514Z,13.30
2022-08-19T10:14:58.000Z,14.47
2022-08-19T10:19:59.834Z,15.53
2022-08-19T10:25:01.914Z,19.00
2022-08-19T10:30:04.865Z,15.20
2022-08-19T10:35:11.932Z,17.13
2022-08-19T10:40:23.613Z,17.57
2022-08-19T10:45:26.863Z,13.27
2022-08-19T10:50:48.540Z,22.53
2022-08-19T10:56:09.020Z,13.17
2022-08-19T11:01:11.022Z,13.00
2022-08-19T11:06:13.169Z,19.83
2022-08-19T11:11:15.179Z,13.30
2022-08-19T11:16:23.380Z,13.77
2022-08-19T11:21:27.916Z,16.60
2022-08-19T11:26:32.872Z,12.73
2022-08-19T11:31:37.170Z,10.17
2022-08-19T11:36:43.790Z,12.77
2022-08-19T11:41:46.187Z,11.80
2022-08-19T11:46:48.201Z,12.57
2022-08-19T11:51:51.606Z,10.00
2022-08-19T11:56:55.556Z,10.47
2022-08-19T12:02:00.139Z,10.03
2022-08-19T12:07:02.795Z,12.20
2022-08-19T12:12:07.953Z,10.63
2022-08-19T12:17:10.425Z,9.63
2022-08-19T12:22:12.280Z,11.07
2022-08-19T12:27:14.086Z,9.17
2022-08-19T12:32:34.699Z,10.80
2022-08-19T12:37:36.489Z,10.33
2022-08-19T12:42:42.401Z,9.43
2022-08-19T12:47:45.372Z,9.17
2022-08-19T12:52:49.717Z,11.13
2022-08-19T12:57:51.762Z,11.10
2022-08-19T13:02:54.050Z,10.23
2022-08-19T13:08:00.378Z,14.30
2022-08-19T13:13:08.538Z,12.00
2022-08-19T13:18:11.589Z,15.27
2022-08-19T13:23:13.442Z,14.03
2022-08-19T13:28:15.412Z,10.50
2022-08-19T13:33:18.815Z,14.10
2022-08-19T13:38:26.542Z,9.33
2022-08-19T13:43:28.301Z,9.97
2022-08-19T13:48:30.028Z,10.97
2022-08-19T13:53:31.862Z,15.30
2022-08-19T13:58:33.992Z,12.53
2022-08-19T14:03:37.898Z,12.80
2022-08-19T14:08:46.404Z,15.87
2022-08-19T14:13:52.349Z,13.67
2022-08-19T14:18:54.425Z,11.10
2022-08-19T14:23:59.138Z,11.13
2022-08-19T14:29:02.399Z,9.90
2022-08-19T14:34:04.125Z,12.33
2022-08-19T14:39:06.325Z,11.20
2022-08-19T14:44:10.959Z,9.37
2022-08-19T14:49:13.041Z,9.13
2022-08-19T14:54:15.337Z,10.30
2022-08-19T14:59:17.966Z,9.67
2022-08-19T15:04:19.828Z,10.30
2022-08-19T15:09:21.540Z,10.77
2022-08-19T15:14:23.224Z,8.50
2022-08-19T15:19:24.924Z,9.67
2022-08-19T15:24:28.528Z,9.40
2022-08-19T15:29:30.345Z,10.27
2022-08-19T15:34:33.462Z,8.20
2022-08-19T15:39:35.262Z,13.67
2022-08-19T15:44:37.023Z,12.73
2022-08-19T15:49:47.308Z,9.00
2022-08-19T15:54:49.138Z,10.00
2022-08-19T16:00:09.226Z,10.60
2022-08-19T16:05:40.578Z,10.67
2022-08-19T16:10:42.306Z,11.23
2022-08-19T16:15:44.909Z,10.00
2022-08-19T16:20:46.614Z,9.50
2022-08-19T16:25:48.397Z,11.57
2022-08-19T16:30:51.157Z,8.70
2022-08-19T16:35:58.457Z,10.10
2022-08-19T16:41:02.196Z,7.87
2022-08-19T16:46:03.987Z,7.93
2022-08-19T16:51:08.517Z,8.00
2022-08-19T16:56:10.841Z,8.00
2022-08-19T17:01:12.647Z,8.17
2022-08-19T17:06:29.424Z,7.60
2022-08-19T17:11:35.566Z,7.40
2022-08-19T17:16:38.133Z,6.67
2022-08-19T17:21:40.707Z,8.03
2022-08-19T17:26:42.400Z,6.70
2022-08-19T17:31:44.149Z,7.20
2022-08-19T17:36:45.993Z,7.03
2022-08-19T17:41:47.714Z,8.13
2022-08-19T17:46:49.425Z,7.10
2022-08-19T17:51:52.212Z,6.37
2022-08-19T17:56:54.186Z,5.37
2022-08-19T18:01:56.004Z,8.53
2022-08-19T18:06:58.069Z,8.60
2022-08-19T18:12:00.456Z,7.03
2022-08-19T18:17:12.992Z,7.17
2022-08-19T18:22:36.759Z,8.47
2022-08-19T18:27:39.093Z,8.00
2022-08-19T18:32:42.383Z,9.80
2022-08-19T18:37:45.961Z,10.80
2022-08-19T18:43:22.496Z,11.30
2022-08-19T18:48:43.320Z,11.43
2022-08-19T18:53:48.626Z,16.60
2022-08-19T18:58:50.345Z,14.50
2022-08-19T19:03:55.514Z,15.60
2022-08-19T19:08:58.314Z,19.87
2022-08-19T19:14:03.199Z,17.20
2022-08-19T19:19:07.638Z,17.83
2022-08-19T19:24:09.489Z,22.07
2022-08-19T19:29:12.572Z,19.97
2022-08-19T19:34:29.103Z,17.97
2022-08-19T19:39:46.194Z,18.37
2022-08-19T19:44:54.616Z,20.87
2022-08-19T19:50:14.386Z,20.40
2022-08-19T19:55:18.405Z,21.13
2022-08-19T20:00:22.004Z,18.60
2022-08-19T20:05:24.958Z,21.43
2022-08-19T20:10:27.182Z,21.27
2022-08-19T20:15:32.008Z,22.27
2022-08-19T20:20:34.280Z,21.23
2022-08-19T20:25:39.222Z,18.47
2022-08-19T20:30:46.590Z,19.53
2022-08-19T20:35:49.858Z,18.40
2022-08-19T20:40:52.689Z,21.23
2022-08-19T20:45:55.852Z,18.60
2022-08-19T20:50:58.151Z,19.00
2022-08-19T20:56:00.287Z,19.07
2022-08-19T21:01:04.714Z,18.13
2022-08-19T21:06:07.074Z,18.33
2022-08-19T21:11:10.616Z,19.27
2022-08-19T21:16:12.524Z,18.63
2022-08-19T21:21:14.470Z,16.07
2022-08-19T21:26:16.481Z,19.43
2022-08-19T21:31:18.303Z,18.50
2022-08-19T21:36:20.339Z,16.87
2022-08-19T21:41:22.648Z,15.20
2022-08-19T21:46:24.401Z,18.50
2022-08-19T21:51:26.237Z,20.47
2022-08-19T21:56:28.574Z,22.50
2022-08-19T22:01:30.336Z,18.73
2022-08-19T22:06:32.100Z,16.77
2022-08-19T22:11:34.514Z,16.13
2022-08-19T22:16:36.209Z,17.23
2022-08-19T22:21:40.102Z,18.77
2022-08-19T22:26:42.820Z,16.43
2022-08-19T22:31:44.950Z,14.00
2022-08-19T22:36:46.653Z,14.63
2022-08-19T22:41:49.358Z,14.67
2022-08-19T22:46:51.076Z,15.33
2022-08-19T22:52:11.169Z,12.33
2022-08-19T22:57:14.140Z,13.73
2022-08-19T23:02:39.601Z,15.03
2022-08-19T23:07:57.217Z,14.17
2022-08-19T23:13:00.145Z,16.87
2022-08-19T23:18:05.532Z,17.50
2022-08-19T23:23:14.185Z,12.40
2022-08-19T23:28:34.154Z,21.80
2022-08-19T23:33:50.835Z,16.40
2022-08-19T23:38:53.754Z,18.50
2022-08-19T23:43:55.587Z,13.07
2022-08-19T23:48:57.366Z,15.60
2022-08-19T23:53:59.123Z,15.73
2022-08-19T23:59:00.848Z,16.37
